createdAt,value
2023-03-02T00:01:34.346Z,-0.88
2023-03-02T00:04:02.953Z,-0.93
2023-03-02T00:06:31.774Z,-0.95
2023-03-02T00:09:00.740Z,-0.92
2023-03-02T00:11:30.576Z,-1.05
2023-03-02T00:13:57.624Z,-1.04
2023-03-02T00:16:24.670Z,-1.06
2023-03-02T00:18:51.467Z,-1.01
2023-03-02T00:21:18.217Z,-1.11
2023-03-02T00:23:45.043Z,-1.06
2023-03-02T00:26:11.750Z,-1.07
2023-03-02T00:28:38.357Z,-1.07
2023-03-02T00:31:06.514Z,-1.11
2023-03-02T00:33:34.727Z,-1.04
2023-03-02T00:36:01.885Z,-1.05
2023-03-02T00:38:29.276Z,-1.01
2023-03-02T00:40:56.460Z,-1.13
2023-03-02T00:43:27.451Z,-1.14
2023-03-02T00:45:57.255Z,-1.14
2023-03-02T00:48:23.894Z,-1.20
2023-03-02T00:50:50.791Z,-1.14
2023-03-02T00:53:18.165Z,-1.23
2023-03-02T00:55:55.868Z,-1.28
2023-03-02T00:58:22.616Z,-1.35
2023-03-02T01:00:49.573Z,-1.34
2023-03-02T01:03:16.288Z,-1.40
2023-03-02T01:05:43.136Z,-1.43
2023-03-02T01:08:09.959Z,-1.41
2023-03-02T01:10:37.573Z,-1.46
2023-03-02T01:13:05.557Z,-1.52
2023-03-02T01:15:33.853Z,-1.45
2023-03-02T01:18:01.036Z,-1.42
2023-03-02T01:20:28.279Z,-1.42
2023-03-02T01:22:55.537Z,-1.47
2023-03-02T01:25:22.204Z,-1.48
2023-03-02T01:27:48.926Z,-1.47
2023-03-02T01:30:16.551Z,-1.36
2023-03-02T01:32:43.202Z,-1.34
2023-03-02T01:35:10.310Z,-1.31
2023-03-02T01:37:37.065Z,-1.37
2023-03-02T01:40:06.501Z,-1.45
2023-03-02T01:42:45.745Z,-1.38
2023-03-02T01:45:30.888Z,-1.44
2023-03-02T01:47:57.646Z,-1.42
2023-03-02T01:50:27.329Z,-1.41
2023-03-02T01:52:55.435Z,-1.39
2023-03-02T01:55:25.405Z,-1.38
2023-03-02T01:57:54.629Z,-1.29
2023-03-02T02:00:25.019Z,-1.30
2023-03-02T02:02:53.224Z,-1.19
2023-03-02T02:05:24.213Z,-1.28
2023-03-02T02:07:51.206Z,-1.25
2023-03-02T02:10:18.232Z,-1.23
2023-03-02T02:12:44.830Z,-1.21
2023-03-02T02:15:11.534Z,-1.22
2023-03-02T02:17:38.244Z,-1.26
2023-03-02T02:20:19.556Z,-1.27
2023-03-02T02:22:59.201Z,-1.31
2023-03-02T02:25:31.786Z,-1.30
2023-03-02T02:27:58.517Z,-1.36
2023-03-02T02:30:25.867Z,-1.35
2023-03-02T02:32:55.475Z,-1.38
2023-03-02T02:35:27.342Z,-1.39
2023-03-02T02:38:02.979Z,-1.44
2023-03-02T02:40:48.161Z,-1.45
2023-03-02T02:43:17.875Z,-1.46
2023-03-02T02:45:46.573Z,-1.56
2023-03-02T02:48:19.490Z,-1.51
2023-03-02T02:50:46.888Z,-1.57
2023-03-02T02:53:19.431Z,-1.55
2023-03-02T02:55:49.476Z,-1.54
2023-03-02T02:58:25.531Z,-1.54
2023-03-02T03:00:53.965Z,-1.59
2023-03-02T03:03:39.358Z,-1.55
2023-03-02T03:06:09.437Z,-1.54
2023-03-02T03:08:45.644Z,-1.56
2023-03-02T03:11:23.394Z,-1.57
2023-03-02T03:14:02.065Z,-1.47
2023-03-02T03:16:31.410Z,-1.52
2023-03-02T03:19:20.139Z,-1.63
2023-03-02T03:21:50.650Z,-1.62
2023-03-02T03:24:17.823Z,-1.58
2023-03-02T03:26:45.219Z,-1.53
2023-03-02T03:29:13.464Z,-1.64
2023-03-02T03:31:40.594Z,-1.64
2023-03-02T03:34:08.002Z,-1.60
2023-03-02T03:36:35.814Z,-1.63
2023-03-02T03:39:05.627Z,-1.62
2023-03-02T03:41:33.196Z,-1.56
2023-03-02T03:44:00.073Z,-1.55
2023-03-02T03:46:27.386Z,-1.60
2023-03-02T03:48:54.123Z,-1.67
2023-03-02T03:51:20.812Z,-1.68
2023-03-02T03:53:59.642Z,-1.63
2023-03-02T03:56:28.316Z,-1.60
2023-03-02T03:59:06.196Z,-1.63
2023-03-02T04:01:41.928Z,-1.60
2023-03-02T04:04:15.912Z,-1.62
2023-03-02T04:06:43.451Z,-1.59
2023-03-02T04:09:12.351Z,-1.56
2023-03-02T04:11:40.958Z,-1.64
2023-03-02T04:14:08.981Z,-1.58
2023-03-02T04:16:36.894Z,-1.62
2023-03-02T04:19:09.556Z,-1.63
2023-03-02T04:21:41.545Z,-1.62
2023-03-02T04:24:09.960Z,-1.65
2023-03-02T04:26:38.282Z,-1.69
2023-03-02T04:29:05.529Z,-1.75
2023-03-02T04:31:32.916Z,-1.76
2023-03-02T04:34:00.410Z,-1.72
2023-03-02T04:36:27.524Z,-1.74
2023-03-02T04:38:54.514Z,-1.76
2023-03-02T04:41:21.912Z,-1.80
2023-03-02T04:43:48.909Z,-1.85
2023-03-02T04:46:22.206Z,-1.95
2023-03-02T04:48:48.903Z,-1.91
2023-03-02T04:51:35.552Z,-1.94
2023-03-02T04:54:05.547Z,-1.90
2023-03-02T04:56:32.838Z,-1.96
2023-03-02T04:58:59.655Z,-2.04
2023-03-02T05:01:26.858Z,-2.00
2023-03-02T05:03:53.893Z,-2.02
2023-03-02T05:06:21.915Z,-2.04
2023-03-02T05:08:48.685Z,-2.06
2023-03-02T05:11:22.040Z,-2.12
2023-03-02T05:13:54.575Z,-2.15
2023-03-02T05:16:21.826Z,-2.22
2023-03-02T05:18:48.532Z,-2.26
2023-03-02T05:21:15.952Z,-2.30
2023-03-02T05:23:43.022Z,-2.38
2023-03-02T05:26:10.175Z,-2.42
2023-03-02T05:28:36.853Z,-2.42
2023-03-02T05:31:03.814Z,-2.40
2023-03-02T05:33:31.028Z,-2.44
2023-03-02T05:35:57.974Z,-2.42
2023-03-02T05:38:25.136Z,-2.39
2023-03-02T05:40:51.731Z,-2.55
2023-03-02T05:43:20.978Z,-2.54
2023-03-02T05:45:47.652Z,-2.54
2023-03-02T05:48:14.542Z,-2.56
2023-03-02T05:50:41.837Z,-2.57
2023-03-02T05:53:08.944Z,-2.56
2023-03-02T05:55:38.288Z,-2.65
2023-03-02T05:58:09.246Z,-2.72
2023-03-02T06:00:36.077Z,-2.61
2023-03-02T06:03:02.895Z,-2.67
2023-03-02T06:05:29.559Z,-2.77
2023-03-02T06:07:56.649Z,-2.78
2023-03-02T06:10:23.618Z,-2.74
2023-03-02T06:12:50.582Z,-2.80
2023-03-02T06:15:17.284Z,-2.85
2023-03-02T06:17:44.269Z,-2.83
2023-03-02T06:20:11.900Z,-2.84
2023-03-02T06:22:41.366Z,-2.81
2023-03-02T06:25:14.106Z,-2.73
2023-03-02T06:27:41.846Z,-2.73
2023-03-02T06:30:10.809Z,-2.77
2023-03-02T06:32:37.530Z,-2.74
2023-03-02T06:35:06.150Z,-2.65
2023-03-02T06:37:33.021Z,-2.50
2023-03-02T06:39:59.891Z,-2.54
2023-03-02T06:42:27.966Z,-2.62
2023-03-02T06:44:55.175Z,-2.59
2023-03-02T06:47:23.295Z,-2.47
2023-03-02T06:49:49.963Z,-2.39
2023-03-02T06:52:16.911Z,-2.39
2023-03-02T06:54:43.670Z,-2.37
2023-03-02T06:57:10.530Z,-2.37
2023-03-02T06:59:37.116Z,-2.36
2023-03-02T07:02:03.986Z,-2.32
2023-03-02T07:04:30.576Z,-2.25
2023-03-02T07:06:57.238Z,-2.23
2023-03-02T07:09:24.244Z,-2.23
2023-03-02T07:11:50.953Z,-2.02
2023-03-02T07:14:17.589Z,-1.95
2023-03-02T07:16:44.327Z,-1.73
2023-03-02T07:19:14.133Z,-1.59
2023-03-02T07:21:41.428Z,-1.44
2023-03-02T07:24:08.264Z,-1.37
2023-03-02T07:26:35.037Z,-1.21
2023-03-02T07:29:01.895Z,-1.06
2023-03-02T07:31:29.156Z,-0.89
2023-03-02T07:33:55.810Z,-0.76
2023-03-02T07:36:22.367Z,-0.62
2023-03-02T07:38:49.033Z,-0.70
2023-03-02T07:41:17.005Z,-0.60
2023-03-02T07:43:43.910Z,-0.49
2023-03-02T07:46:10.821Z,-0.38
2023-03-02T07:48:37.545Z,-0.19
2023-03-02T07:51:05.903Z,-0.12
2023-03-02T07:53:33.041Z,-0.19
2023-03-02T07:56:01.427Z,-0.10
2023-03-02T07:58:28.322Z,0.03
2023-03-02T08:00:54.924Z,0.00
2023-03-02T08:03:21.640Z,0.10
2023-03-02T08:05:48.249Z,0.17
2023-03-02T08:08:14.917Z,0.22
2023-03-02T08:10:41.535Z,0.25
2023-03-02T08:13:08.174Z,0.25
2023-03-02T08:15:34.816Z,0.31
2023-03-02T08:18:01.458Z,0.34
2023-03-02T08:20:28.272Z,0.41
2023-03-02T08:22:55.108Z,0.40
2023-03-02T08:25:21.834Z,0.47
2023-03-02T08:27:48.691Z,0.58
2023-03-02T08:30:15.610Z,0.65
2023-03-02T08:32:42.436Z,0.62
2023-03-02T08:35:09.588Z,0.72
2023-03-02T08:37:36.334Z,0.79
2023-03-02T08:40:03.857Z,0.74
2023-03-02T08:42:30.476Z,0.86
2023-03-02T08:44:57.107Z,0.95
2023-03-02T08:47:23.717Z,1.02
2023-03-02T08:49:51.280Z,1.11
2023-03-02T08:52:17.921Z,1.08
2023-03-02T08:54:44.618Z,1.04
2023-03-02T08:57:11.837Z,1.05
2023-03-02T08:59:38.515Z,1.12
2023-03-02T09:02:05.383Z,1.14
2023-03-02T09:04:32.276Z,1.25
2023-03-02T09:06:58.940Z,1.38
2023-03-02T09:09:25.591Z,1.50
2023-03-02T09:11:52.291Z,1.52
2023-03-02T09:14:18.908Z,1.49
2023-03-02T09:16:46.253Z,1.53
2023-03-02T09:19:13.894Z,1.60
2023-03-02T09:21:40.513Z,1.72
2023-03-02T09:24:07.301Z,1.78
2023-03-02T09:26:34.213Z,1.80
2023-03-02T09:29:00.912Z,1.84
2023-03-02T09:31:30.126Z,1.82
2023-03-02T09:33:57.176Z,1.95
2023-03-02T09:36:25.629Z,2.06
2023-03-02T09:38:52.883Z,2.09
2023-03-02T09:41:19.614Z,2.15
2023-03-02T09:44:02.014Z,2.21
2023-03-02T09:46:49.745Z,2.28
2023-03-02T09:49:38.199Z,2.30
2023-03-02T09:52:28.309Z,2.42
2023-03-02T09:54:56.280Z,2.52
2023-03-02T09:57:27.161Z,2.57
2023-03-02T10:00:18.321Z,2.75
2023-03-02T10:02:58.777Z,2.92
2023-03-02T10:05:41.920Z,2.96
2023-03-02T10:08:13.264Z,3.04
2023-03-02T10:10:39.867Z,3.22
2023-03-02T10:13:28.256Z,3.31
2023-03-02T10:15:58.006Z,3.40
2023-03-02T10:18:35.957Z,3.29
2023-03-02T10:21:24.267Z,3.47
2023-03-02T10:23:57.385Z,3.52
2023-03-02T10:26:46.787Z,3.47
2023-03-02T10:29:32.099Z,3.49
2023-03-02T10:32:13.491Z,3.47
2023-03-02T10:34:40.113Z,3.46
2023-03-02T10:37:15.432Z,3.48
2023-03-02T10:39:42.168Z,3.65
2023-03-02T10:42:17.076Z,3.65
2023-03-02T10:44:51.090Z,3.75
2023-03-02T10:47:35.564Z,3.77
2023-03-02T10:50:02.194Z,3.79
2023-03-02T10:52:29.465Z,3.77
2023-03-02T10:55:14.331Z,3.63
2023-03-02T10:57:43.954Z,3.76
2023-03-02T11:00:25.225Z,3.78
2023-03-02T11:03:20.316Z,3.85
2023-03-02T11:05:47.814Z,3.88
2023-03-02T11:08:23.457Z,4.06
2023-03-02T11:10:56.900Z,3.97
2023-03-02T11:13:31.180Z,3.92
2023-03-02T11:16:26.234Z,4.04
2023-03-02T11:18:59.144Z,4.21
2023-03-02T11:21:41.128Z,4.17
2023-03-02T11:24:15.311Z,4.29
2023-03-02T11:26:53.738Z,4.43
2023-03-02T11:29:35.758Z,4.48
2023-03-02T11:32:08.342Z,4.65
2023-03-02T11:34:42.465Z,4.73
2023-03-02T11:37:23.125Z,4.89
2023-03-02T11:39:56.229Z,4.94
2023-03-02T11:42:44.251Z,4.90
2023-03-02T11:45:13.794Z,4.86
2023-03-02T11:47:57.573Z,4.90
2023-03-02T11:50:31.590Z,5.03
2023-03-02T11:52:59.583Z,5.01
2023-03-02T11:55:35.765Z,5.03
2023-03-02T11:58:04.789Z,5.26
2023-03-02T12:00:39.785Z,5.31
2023-03-02T12:03:15.349Z,5.50
2023-03-02T12:05:46.961Z,5.50
2023-03-02T12:08:19.346Z,5.53
2023-03-02T12:11:26.188Z,5.49
2023-03-02T12:13:52.746Z,5.63
2023-03-02T12:16:41.058Z,5.77
2023-03-02T12:19:25.999Z,5.87
2023-03-02T12:22:02.248Z,5.83
2023-03-02T12:24:32.568Z,5.97
2023-03-02T12:27:16.601Z,6.02
2023-03-02T12:29:46.104Z,6.29
2023-03-02T12:32:21.853Z,6.26
2023-03-02T12:34:59.862Z,6.45
2023-03-02T12:37:31.917Z,6.53
2023-03-02T12:40:10.595Z,6.62
2023-03-02T12:43:01.396Z,6.81
2023-03-02T12:45:36.678Z,6.99
2023-03-02T12:48:15.639Z,7.06
2023-03-02T12:50:42.950Z,7.01
2023-03-02T12:53:19.405Z,7.08
2023-03-02T12:55:47.037Z,7.07
2023-03-02T12:58:20.881Z,7.08
2023-03-02T13:00:57.114Z,7.30
2023-03-02T13:03:26.370Z,7.46
2023-03-02T13:06:04.185Z,7.66
2023-03-02T13:08:32.047Z,7.93
2023-03-02T13:11:01.652Z,7.90
2023-03-02T13:13:43.062Z,7.93
2023-03-02T13:16:23.266Z,7.61
2023-03-02T13:18:53.907Z,8.09
2023-03-02T13:21:22.127Z,8.21
2023-03-02T13:23:51.900Z,8.23
2023-03-02T13:26:29.141Z,7.95
2023-03-02T13:29:14.769Z,8.33
2023-03-02T13:31:41.453Z,8.54
2023-03-02T13:34:24.575Z,8.64
2023-03-02T13:36:52.072Z,9.03
2023-03-02T13:39:28.271Z,8.73
2023-03-02T13:41:59.012Z,8.72
2023-03-02T13:44:33.950Z,8.66
2023-03-02T13:47:01.790Z,8.89
2023-03-02T13:49:31.365Z,8.59
2023-03-02T13:52:20.095Z,8.80
2023-03-02T13:54:48.015Z,8.96
2023-03-02T13:57:25.200Z,9.06
2023-03-02T13:59:51.894Z,9.41
2023-03-02T14:02:25.454Z,9.39
2023-03-02T14:04:52.926Z,9.42
2023-03-02T14:07:20.964Z,9.47
2023-03-02T14:09:48.640Z,9.31
2023-03-02T14:12:27.370Z,9.35
2023-03-02T14:14:57.438Z,9.20
2023-03-02T14:17:26.148Z,9.25
2023-03-02T14:19:54.949Z,8.96
2023-03-02T14:22:25.219Z,8.84
2023-03-02T14:24:51.931Z,9.06
2023-03-02T14:27:19.390Z,8.99
2023-03-02T14:29:46.924Z,8.93
2023-03-02T14:32:15.390Z,8.88
2023-03-02T14:34:43.381Z,8.93
2023-03-02T14:37:15.138Z,9.08
2023-03-02T14:39:45.740Z,9.03
2023-03-02T14:42:15.390Z,9.19
2023-03-02T14:44:43.602Z,9.31
2023-03-02T14:47:10.620Z,9.21
2023-03-02T14:49:38.162Z,9.26
2023-03-02T14:52:28.076Z,8.95
2023-03-02T14:54:57.941Z,8.92
2023-03-02T14:57:27.673Z,8.75
2023-03-02T14:59:56.251Z,8.56
2023-03-02T15:02:26.744Z,8.67
2023-03-02T15:04:57.065Z,8.94
2023-03-02T15:07:28.300Z,8.75
2023-03-02T15:09:57.369Z,8.71
2023-03-02T15:12:24.540Z,8.49
2023-03-02T15:14:51.711Z,8.41
2023-03-02T15:17:18.430Z,8.48
2023-03-02T15:19:45.110Z,8.41
2023-03-02T15:22:13.198Z,8.34
2023-03-02T15:24:39.937Z,8.18
2023-03-02T15:27:06.609Z,8.19
2023-03-02T15:29:33.725Z,8.07
2023-03-02T15:32:00.479Z,8.18
2023-03-02T15:34:27.180Z,7.98
2023-03-02T15:36:53.807Z,7.88
2023-03-02T15:39:20.514Z,7.95
2023-03-02T15:41:47.152Z,8.00
2023-03-02T15:44:23.011Z,7.80
2023-03-02T15:46:51.785Z,7.99
2023-03-02T15:49:22.876Z,7.79
2023-03-02T15:51:51.995Z,7.89
2023-03-02T15:54:18.899Z,7.97
2023-03-02T15:56:45.542Z,7.73
2023-03-02T15:59:12.166Z,7.62
2023-03-02T16:01:38.885Z,7.39
2023-03-02T16:04:05.628Z,7.38
2023-03-02T16:06:32.282Z,7.17
2023-03-02T16:08:58.901Z,7.14
2023-03-02T16:11:25.646Z,7.15
2023-03-02T16:13:52.865Z,7.01
2023-03-02T16:16:21.147Z,7.02
2023-03-02T16:18:51.886Z,6.88
2023-03-02T16:21:18.911Z,6.86
2023-03-02T16:23:45.752Z,6.73
2023-03-02T16:26:16.740Z,6.65
2023-03-02T16:28:43.456Z,6.55
2023-03-02T16:31:17.654Z,6.46
2023-03-02T16:33:45.393Z,6.39
2023-03-02T16:36:13.046Z,6.24
2023-03-02T16:38:40.472Z,6.16
2023-03-02T16:41:16.352Z,6.13
2023-03-02T16:43:49.224Z,6.04
2023-03-02T16:46:17.066Z,6.01
2023-03-02T16:48:46.380Z,5.86
2023-03-02T16:51:13.455Z,5.81
2023-03-02T16:53:43.345Z,5.75
2023-03-02T16:56:11.982Z,5.67
2023-03-02T16:58:40.137Z,5.51
2023-03-02T17:01:09.022Z,5.44
2023-03-02T17:03:36.026Z,5.31
2023-03-02T17:06:03.053Z,5.39
2023-03-02T17:08:50.850Z,5.22
2023-03-02T17:11:17.980Z,5.14
2023-03-02T17:13:44.709Z,5.07
2023-03-02T17:16:11.990Z,4.96
2023-03-02T17:18:38.905Z,4.95
2023-03-02T17:21:05.900Z,4.76
2023-03-02T17:23:33.192Z,4.67
2023-03-02T17:26:00.337Z,4.54
2023-03-02T17:28:27.063Z,4.53
2023-03-02T17:30:53.763Z,4.40
2023-03-02T17:33:20.561Z,4.42
2023-03-02T17:35:47.545Z,4.32
2023-03-02T17:38:15.355Z,4.31
2023-03-02T17:40:43.122Z,4.21
2023-03-02T17:43:10.282Z,4.17
2023-03-02T17:45:36.926Z,4.12
2023-03-02T17:48:03.700Z,3.96
2023-03-02T17:50:33.765Z,3.94
2023-03-02T17:53:00.785Z,3.89
2023-03-02T17:55:27.754Z,3.85
2023-03-02T17:57:54.446Z,3.86
2023-03-02T18:00:23.226Z,3.79
2023-03-02T18:02:51.030Z,3.65
2023-03-02T18:05:18.196Z,3.58
2023-03-02T18:07:45.217Z,3.49
2023-03-02T18:10:12.567Z,3.46
2023-03-02T18:12:39.457Z,3.41
2023-03-02T18:15:06.789Z,3.39
2023-03-02T18:17:33.448Z,3.40
2023-03-02T18:20:00.144Z,3.34
2023-03-02T18:22:26.873Z,3.28
2023-03-02T18:24:53.590Z,3.21
2023-03-02T18:27:20.634Z,3.18
2023-03-02T18:29:47.363Z,3.16
2023-03-02T18:32:14.421Z,3.07
2023-03-02T18:34:41.441Z,2.95
2023-03-02T18:37:08.566Z,2.94
2023-03-02T18:39:37.688Z,2.86
2023-03-02T18:42:05.371Z,2.77
2023-03-02T18:44:32.577Z,2.79
2023-03-02T18:47:00.742Z,2.80
2023-03-02T18:49:28.022Z,2.74
2023-03-02T18:51:56.591Z,2.75
2023-03-02T18:54:24.561Z,2.65
2023-03-02T18:56:51.544Z,2.62
2023-03-02T18:59:18.432Z,2.58
2023-03-02T19:01:46.300Z,2.56
2023-03-02T19:04:14.340Z,2.54
2023-03-02T19:06:42.323Z,2.61
2023-03-02T19:09:09.556Z,2.56
2023-03-02T19:11:36.456Z,2.61
2023-03-02T19:14:03.454Z,2.61
2023-03-02T19:16:30.132Z,2.52
2023-03-02T19:18:56.902Z,2.50
2023-03-02T19:21:23.604Z,2.47
2023-03-02T19:23:50.235Z,2.43
2023-03-02T19:26:16.916Z,2.33
2023-03-02T19:28:43.639Z,2.26
2023-03-02T19:31:11.520Z,2.19
2023-03-02T19:33:40.063Z,2.15
2023-03-02T19:36:07.501Z,2.11
2023-03-02T19:38:37.842Z,2.13
2023-03-02T19:41:04.931Z,2.05
2023-03-02T19:43:33.016Z,2.03
2023-03-02T19:46:00.859Z,1.96
2023-03-02T19:48:29.724Z,1.94
2023-03-02T19:50:56.641Z,1.89
2023-03-02T19:53:23.368Z,1.83
2023-03-02T19:55:51.518Z,1.85
2023-03-02T19:58:19.812Z,1.76
2023-03-02T20:00:47.003Z,1.75
2023-03-02T20:03:13.837Z,1.65
2023-03-02T20:05:40.590Z,1.57
2023-03-02T20:08:07.822Z,1.59
2023-03-02T20:10:34.704Z,1.66
2023-03-02T20:13:01.702Z,1.62
2023-03-02T20:15:31.072Z,1.65
2023-03-02T20:17:59.402Z,1.60
2023-03-02T20:20:27.040Z,1.58
2023-03-02T20:22:53.770Z,1.55
2023-03-02T20:25:21.460Z,1.49
2023-03-02T20:27:49.356Z,1.37
2023-03-02T20:30:22.948Z,1.42
2023-03-02T20:32:50.041Z,1.42
2023-03-02T20:35:16.920Z,1.40
2023-03-02T20:37:43.615Z,1.31
2023-03-02T20:40:31.130Z,1.20
2023-03-02T20:42:58.382Z,1.20
2023-03-02T20:45:25.792Z,1.22
2023-03-02T20:47:52.638Z,1.26
2023-03-02T20:50:26.095Z,1.20
2023-03-02T20:52:53.005Z,1.18
2023-03-02T20:55:19.930Z,1.08
2023-03-02T20:57:48.654Z,1.14
2023-03-02T21:00:20.846Z,1.18
2023-03-02T21:02:48.459Z,1.06
2023-03-02T21:05:17.461Z,1.06
2023-03-02T21:07:45.516Z,1.05
2023-03-02T21:10:16.184Z,1.00
2023-03-02T21:12:43.052Z,0.99
2023-03-02T21:15:10.619Z,0.95
2023-03-02T21:17:37.619Z,0.94
2023-03-02T21:20:05.965Z,0.88
2023-03-02T21:22:33.195Z,0.80
2023-03-02T21:25:00.045Z,0.82
2023-03-02T21:27:26.677Z,0.81
2023-03-02T21:29:53.355Z,0.73
2023-03-02T21:32:20.053Z,0.67
2023-03-02T21:34:46.773Z,0.73
2023-03-02T21:37:13.391Z,0.65
2023-03-02T21:39:40.027Z,0.62
2023-03-02T21:42:07.003Z,0.56
2023-03-02T21:44:33.636Z,0.55
2023-03-02T21:47:00.234Z,0.56
2023-03-02T21:49:27.054Z,0.56
2023-03-02T21:51:53.672Z,0.49
2023-03-02T21:54:20.400Z,0.40
2023-03-02T21:56:47.092Z,0.37
2023-03-02T21:59:13.805Z,0.34
2023-03-02T22:01:40.798Z,0.23
2023-03-02T22:04:07.415Z,0.25
2023-03-02T22:06:37.620Z,0.14
2023-03-02T22:09:04.845Z,0.16
2023-03-02T22:11:35.940Z,0.12
2023-03-02T22:14:14.478Z,0.06
2023-03-02T22:16:43.262Z,0.10
2023-03-02T22:19:32.782Z,0.04
2023-03-02T22:22:01.053Z,0.03
2023-03-02T22:24:30.385Z,0.04
2023-03-02T22:27:22.247Z,0.05
2023-03-02T22:29:53.116Z,0.06
2023-03-02T22:32:26.390Z,-0.02
2023-03-02T22:35:02.726Z,0.02
2023-03-02T22:37:33.651Z,0.09
2023-03-02T22:40:27.742Z,0.12
2023-03-02T22:43:08.630Z,0.04
2023-03-02T22:45:35.612Z,0.02
2023-03-02T22:48:02.343Z,0.11
2023-03-02T22:50:30.825Z,0.16
2023-03-02T22:53:00.123Z,0.24
2023-03-02T22:55:40.406Z,0.20
2023-03-02T22:58:25.515Z,0.23
2023-03-02T23:00:52.500Z,0.26
2023-03-02T23:03:22.043Z,0.21
2023-03-02T23:05:51.759Z,0.24
2023-03-02T23:08:26.633Z,0.24
2023-03-02T23:10:57.872Z,0.23
2023-03-02T23:13:30.324Z,0.21
2023-03-02T23:15:57.530Z,0.21
2023-03-02T23:18:27.319Z,0.23
2023-03-02T23:20:54.360Z,0.18
2023-03-02T23:23:23.183Z,0.15
2023-03-02T23:25:50.614Z,0.02
2023-03-02T23:28:17.267Z,0.02
2023-03-02T23:30:44.077Z,0.06
2023-03-02T23:33:10.806Z,0.03
2023-03-02T23:35:37.472Z,0.09
2023-03-02T23:38:04.143Z,0.04
2023-03-02T23:40:30.848Z,0.09
2023-03-02T23:42:57.455Z,0.05
2023-03-02T23:45:24.175Z,0.10
2023-03-02T23:47:50.770Z,0.06
2023-03-02T23:50:17.688Z,0.08
2023-03-02T23:52:44.348Z,0.11
2023-03-02T23:55:11.390Z,0.07
2023-03-02T23:57:38.003Z,0.07
